sensor_id;sensor_type;location;lat;lon;timestamp;P1;durP1;ratioP1;P2;durP2;ratioP2
25982;SDS011;13773;48.868;10.730;2023-04-16T00:02:18;11.90;;;9.00;;
25982;SDS011;13773;48.868;10.730;2023-04-16T00:04:43;13.10;;;8.90;;
25982;SDS011;13773;48.868;10.730;2023-04-16T00:07:09;9.87;;;8.27;;
25982;SDS011;13773;48.868;10.730;2023-04-16T00:09:35;11.27;;;9.07;;
25982;SDS011;13773;48.868;10.730;2023-04-16T00:12:01;11.47;;;8.80;;
25982;SDS011;13773;48.868;10.730;2023-04-16T00:14:27;10.43;;;8.80;;
25982;SDS011;13773;48.868;10.730;2023-04-16T00:16:54;12.10;;;9.27;;
25982;SDS011;13773;48.868;10.730;2023-04-16T00:19:19;11.20;;;9.30;;
25982;SDS011;13773;48.868;10.730;2023-04-16T00:21:45;13.63;;;10.13;;
25982;SDS011;13773;48.868;10.730;2023-04-16T00:24:11;11.07;;;9.47;;
25982;SDS011;13773;48.868;10.730;2023-04-16T00:26:36;11.40;;;9.00;;
25982;SDS011;13773;48.868;10.730;2023-04-16T00:29:02;13.27;;;10.57;;
25982;SDS011;13773;48.868;10.730;2023-04-16T00:31:28;14.43;;;10.33;;
25982;SDS011;13773;48.868;10.730;2023-04-16T00:33:54;12.80;;;10.43;;
25982;SDS011;13773;48.868;10.730;2023-04-16T00:36:21;15.77;;;11.80;;
25982;SDS011;13773;48.868;10.730;2023-04-16T00:38:48;16.43;;;12.37;;
25982;SDS011;13773;48.868;10.730;2023-04-16T00:41:13;17.47;;;11.80;;
25982;SDS011;13773;48.868;10.730;2023-04-16T00:43:39;16.83;;;11.90;;
25982;SDS011;13773;48.868;10.730;2023-04-16T00:46:05;15.07;;;11.27;;
25982;SDS011;13773;48.868;10.730;2023-04-16T00:48:32;17.17;;;12.33;;
25982;SDS011;13773;48.868;10.730;2023-04-16T00:51:03;15.87;;;11.53;;
25982;SDS011;13773;48.868;10.730;2023-04-16T00:53:30;14.00;;;11.50;;
25982;SDS011;13773;48.868;10.730;2023-04-16T00:55:56;16.10;;;12.47;;
25982;SDS011;13773;48.868;10.730;2023-04-16T00:58:23;17.60;;;12.23;;
25982;SDS011;13773;48.868;10.730;2023-04-16T01:00:49;14.50;;;11.73;;
25982;SDS011;13773;48.868;10.730;2023-04-16T01:03:15;16.20;;;12.40;;
25982;SDS011;13773;48.868;10.730;2023-04-16T01:05:41;17.73;;;12.63;;
25982;SDS011;13773;48.868;10.730;2023-04-16T01:08:17;18.50;;;12.70;;
25982;SDS011;13773;48.868;10.730;2023-04-16T01:10:44;18.23;;;12.93;;
25982;SDS011;13773;48.868;10.730;2023-04-16T01:13:10;16.77;;;13.13;;
25982;SDS011;13773;48.868;10.730;2023-04-16T01:15:36;15.37;;;12.97;;
25982;SDS011;13773;48.868;10.730;2023-04-16T01:18:02;17.40;;;13.87;;
25982;SDS011;13773;48.868;10.730;2023-04-16T01:20:37;17.47;;;13.17;;
25982;SDS011;13773;48.868;10.730;2023-04-16T01:23:02;16.37;;;13.17;;
25982;SDS011;13773;48.868;10.730;2023-04-16T01:25:28;17.13;;;13.50;;
25982;SDS011;13773;48.868;10.730;2023-04-16T01:27:54;17.20;;;13.07;;
25982;SDS011;13773;48.868;10.730;2023-04-16T01:30:21;18.03;;;13.70;;
25982;SDS011;13773;48.868;10.730;2023-04-16T01:32:47;17.17;;;13.13;;
25982;SDS011;13773;48.868;10.730;2023-04-16T01:35:12;19.20;;;13.57;;
25982;SDS011;13773;48.868;10.730;2023-04-16T01:37:38;17.17;;;13.10;;
25982;SDS011;13773;48.868;10.730;2023-04-16T01:40:04;19.00;;;13.47;;
25982;SDS011;13773;48.868;10.730;2023-04-16T01:42:30;19.43;;;13.67;;
25982;SDS011;13773;48.868;10.730;2023-04-16T01:44:56;17.27;;;12.67;;
25982;SDS011;13773;48.868;10.730;2023-04-16T01:47:22;16.83;;;12.70;;
25982;SDS011;13773;48.868;10.730;2023-04-16T01:49:47;17.53;;;12.60;;
25982;SDS011;13773;48.868;10.730;2023-04-16T01:52:13;15.60;;;12.70;;
25982;SDS011;13773;48.868;10.730;2023-04-16T01:54:39;18.83;;;13.17;;
25982;SDS011;13773;48.868;10.730;2023-04-16T01:57:05;18.67;;;13.10;;
25982;SDS011;13773;48.868;10.730;2023-04-16T01:59:30;18.07;;;12.73;;
25982;SDS011;13773;48.868;10.730;2023-04-16T02:01:56;19.13;;;13.27;;
25982;SDS011;13773;48.868;10.730;2023-04-16T02:04:31;18.90;;;13.77;;
25982;SDS011;13773;48.868;10.730;2023-04-16T02:06:56;17.87;;;13.40;;
25982;SDS011;13773;48.868;10.730;2023-04-16T02:09:22;17.50;;;12.43;;
25982;SDS011;13773;48.868;10.730;2023-04-16T02:11:48;19.23;;;12.93;;
25982;SDS011;13773;48.868;10.730;2023-04-16T02:14:14;21.10;;;13.90;;
25982;SDS011;13773;48.868;10.730;2023-04-16T02:16:40;17.90;;;13.30;;
25982;SDS011;13773;48.868;10.730;2023-04-16T02:19:05;18.47;;;12.77;;
25982;SDS011;13773;48.868;10.730;2023-04-16T02:21:31;16.83;;;12.53;;
25982;SDS011;13773;48.868;10.730;2023-04-16T02:23:56;23.17;;;14.07;;
25982;SDS011;13773;48.868;10.730;2023-04-16T02:26:22;17.07;;;12.57;;
25982;SDS011;13773;48.868;10.730;2023-04-16T02:28:48;18.70;;;12.87;;
25982;SDS011;13773;48.868;10.730;2023-04-16T02:31:15;16.97;;;12.50;;
25982;SDS011;13773;48.868;10.730;2023-04-16T02:33:43;19.63;;;12.67;;
25982;SDS011;13773;48.868;10.730;2023-04-16T02:36:09;17.70;;;12.73;;
25982;SDS011;13773;48.868;10.730;2023-04-16T02:38:35;19.80;;;12.90;;
25982;SDS011;13773;48.868;10.730;2023-04-16T02:41:01;18.67;;;13.27;;
25982;SDS011;13773;48.868;10.730;2023-04-16T02:43:27;17.83;;;12.63;;
25982;SDS011;13773;48.868;10.730;2023-04-16T02:45:53;16.43;;;11.97;;
25982;SDS011;13773;48.868;10.730;2023-04-16T02:48:18;19.40;;;12.60;;
25982;SDS011;13773;48.868;10.730;2023-04-16T02:50:44;18.53;;;13.10;;
25982;SDS011;13773;48.868;10.730;2023-04-16T02:53:10;20.50;;;13.07;;
25982;SDS011;13773;48.868;10.730;2023-04-16T02:55:35;19.50;;;13.33;;
25982;SDS011;13773;48.868;10.730;2023-04-16T02:58:01;20.57;;;13.30;;
25982;SDS011;13773;48.868;10.730;2023-04-16T03:00:27;16.80;;;12.27;;
25982;SDS011;13773;48.868;10.730;2023-04-16T03:02:52;18.10;;;12.17;;
25982;SDS011;13773;48.868;10.730;2023-04-16T03:05:18;15.77;;;11.50;;
25982;SDS011;13773;48.868;10.730;2023-04-16T03:07:43;16.30;;;11.67;;
25982;SDS011;13773;48.868;10.730;2023-04-16T03:10:10;16.97;;;11.30;;
25982;SDS011;13773;48.868;10.730;2023-04-16T03:12:36;16.63;;;11.67;;
25982;SDS011;13773;48.868;10.730;2023-04-16T03:15:02;15.90;;;11.10;;
25982;SDS011;13773;48.868;10.730;2023-04-16T03:17:27;14.37;;;10.73;;
25982;SDS011;13773;48.868;10.730;2023-04-16T03:19:53;14.80;;;10.43;;
25982;SDS011;13773;48.868;10.730;2023-04-16T03:22:19;14.67;;;10.07;;
25982;SDS011;13773;48.868;10.730;2023-04-16T03:24:45;14.17;;;9.77;;
25982;SDS011;13773;48.868;10.730;2023-04-16T03:27:11;12.63;;;9.57;;
25982;SDS011;13773;48.868;10.730;2023-04-16T03:29:37;13.43;;;10.03;;
25982;SDS011;13773;48.868;10.730;2023-04-16T03:32:03;12.73;;;9.13;;
25982;SDS011;13773;48.868;10.730;2023-04-16T03:34:28;13.30;;;9.40;;
25982;SDS011;13773;48.868;10.730;2023-04-16T03:36:54;13.07;;;8.93;;
25982;SDS011;13773;48.868;10.730;2023-04-16T03:39:20;14.33;;;9.67;;
25982;SDS011;13773;48.868;10.730;2023-04-16T03:41:45;12.30;;;9.20;;
25982;SDS011;13773;48.868;10.730;2023-04-16T03:44:11;15.17;;;10.30;;
25982;SDS011;13773;48.868;10.730;2023-04-16T03:46:37;14.50;;;9.93;;
25982;SDS011;13773;48.868;10.730;2023-04-16T03:49:02;14.53;;;10.10;;
25982;SDS011;13773;48.868;10.730;2023-04-16T03:51:28;13.37;;;9.60;;
25982;SDS011;13773;48.868;10.730;2023-04-16T03:53:54;13.03;;;9.20;;
25982;SDS011;13773;48.868;10.730;2023-04-16T03:56:20;14.77;;;9.73;;
25982;SDS011;13773;48.868;10.730;2023-04-16T03:58:45;14.20;;;9.37;;
25982;SDS011;13773;48.868;10.730;2023-04-16T04:01:11;12.13;;;8.93;;
25982;SDS011;13773;48.868;10.730;2023-04-16T04:03:36;13.13;;;9.27;;
25982;SDS011;13773;48.868;10.730;2023-04-16T04:06:06;14.20;;;8.70;;
25982;SDS011;13773;48.868;10.730;2023-04-16T04:08:32;11.27;;;8.50;;
25982;SDS011;13773;48.868;10.730;2023-04-16T04:10:58;12.50;;;8.33;;
25982;SDS011;13773;48.868;10.730;2023-04-16T04:13:23;12.63;;;8.70;;
25982;SDS011;13773;48.868;10.730;2023-04-16T04:15:49;10.63;;;8.17;;
25982;SDS011;13773;48.868;10.730;2023-04-16T04:18:15;10.93;;;8.23;;
25982;SDS011;13773;48.868;10.730;2023-04-16T04:20:41;11.93;;;7.87;;
25982;SDS011;13773;48.868;10.730;2023-04-16T04:23:07;12.67;;;8.77;;
25982;SDS011;13773;48.868;10.730;2023-04-16T04:25:32;11.23;;;8.37;;
25982;SDS011;13773;48.868;10.730;2023-04-16T04:27:58;11.70;;;8.57;;
25982;SDS011;13773;48.868;10.730;2023-04-16T04:30:23;11.63;;;8.53;;
25982;SDS011;13773;48.868;10.730;2023-04-16T04:32:49;10.30;;;7.43;;
25982;SDS011;13773;48.868;10.730;2023-04-16T04:35:15;9.17;;;7.10;;
25982;SDS011;13773;48.868;10.730;2023-04-16T04:37:40;8.97;;;7.20;;
25982;SDS011;13773;48.868;10.730;2023-04-16T04:40:06;11.13;;;7.17;;
25982;SDS011;13773;48.868;10.730;2023-04-16T04:42:32;8.67;;;6.90;;
25982;SDS011;13773;48.868;10.730;2023-04-16T04:44:58;8.80;;;6.30;;
25982;SDS011;13773;48.868;10.730;2023-04-16T04:47:23;9.60;;;7.73;;
25982;SDS011;13773;48.868;10.730;2023-04-16T04:49:49;10.17;;;7.67;;
25982;SDS011;13773;48.868;10.730;2023-04-16T04:52:15;9.60;;;7.70;;
25982;SDS011;13773;48.868;10.730;2023-04-16T04:54:40;13.97;;;9.13;;
25982;SDS011;13773;48.868;10.730;2023-04-16T04:57:06;11.70;;;8.53;;
25982;SDS011;13773;48.868;10.730;2023-04-16T04:59:32;11.07;;;8.23;;
25982;SDS011;13773;48.868;10.730;2023-04-16T05:01:58;11.30;;;8.80;;
25982;SDS011;13773;48.868;10.730;2023-04-16T05:04:24;12.30;;;8.97;;
25982;SDS011;13773;48.868;10.730;2023-04-16T05:06:50;16.60;;;12.53;;
25982;SDS011;13773;48.868;10.730;2023-04-16T05:09:15;11.97;;;9.93;;
25982;SDS011;13773;48.868;10.730;2023-04-16T05:11:41;9.83;;;7.77;;
25982;SDS011;13773;48.868;10.730;2023-04-16T05:14:07;8.27;;;6.90;;
25982;SDS011;13773;48.868;10.730;2023-04-16T05:16:36;9.37;;;7.70;;
25982;SDS011;13773;48.868;10.730;2023-04-16T05:19:02;8.33;;;6.50;;
25982;SDS011;13773;48.868;10.730;2023-04-16T05:21:28;7.03;;;5.80;;
25982;SDS011;13773;48.868;10.730;2023-04-16T05:23:54;7.27;;;5.90;;
25982;SDS011;13773;48.868;10.730;2023-04-16T05:26:19;8.83;;;6.23;;
25982;SDS011;13773;48.868;10.730;2023-04-16T05:28:45;6.30;;;5.27;;
25982;SDS011;13773;48.868;10.730;2023-04-16T05:31:11;7.73;;;5.93;;
25982;SDS011;13773;48.868;10.730;2023-04-16T05:33:37;7.50;;;5.97;;
25982;SDS011;13773;48.868;10.730;2023-04-16T05:36:02;8.23;;;6.20;;
25982;SDS011;13773;48.868;10.730;2023-04-16T05:38:28;7.70;;;5.57;;
25982;SDS011;13773;48.868;10.730;2023-04-16T05:40:54;6.57;;;5.17;;
25982;SDS011;13773;48.868;10.730;2023-04-16T05:43:20;6.47;;;5.43;;
25982;SDS011;13773;48.868;10.730;2023-04-16T05:45:45;7.03;;;5.37;;
25982;SDS011;13773;48.868;10.730;2023-04-16T05:48:11;5.90;;;5.07;;
25982;SDS011;13773;48.868;10.730;2023-04-16T05:50:37;7.00;;;4.87;;
25982;SDS011;13773;48.868;10.730;2023-04-16T05:53:04;5.77;;;4.70;;
25982;SDS011;13773;48.868;10.730;2023-04-16T05:55:31;5.30;;;4.67;;
25982;SDS011;13773;48.868;10.730;2023-04-16T05:57:57;7.37;;;5.67;;
25982;SDS011;13773;48.868;10.730;2023-04-16T06:00:23;5.83;;;4.97;;
25982;SDS011;13773;48.868;10.730;2023-04-16T06:02:49;6.67;;;5.03;;
25982;SDS011;13773;48.868;10.730;2023-04-16T06:05:15;5.57;;;4.83;;
25982;SDS011;13773;48.868;10.730;2023-04-16T06:07:41;4.53;;;4.10;;
25982;SDS011;13773;48.868;10.730;2023-04-16T06:10:07;4.50;;;3.97;;
25982;SDS011;13773;48.868;10.730;2023-04-16T06:12:33;4.97;;;4.47;;
25982;SDS011;13773;48.868;10.730;2023-04-16T06:15:00;4.37;;;3.77;;
25982;SDS011;13773;48.868;10.730;2023-04-16T06:17:25;4.33;;;3.93;;
25982;SDS011;13773;48.868;10.730;2023-04-16T06:19:51;5.23;;;4.73;;
25982;SDS011;13773;48.868;10.730;2023-04-16T06:22:17;4.20;;;3.80;;
25982;SDS011;13773;48.868;10.730;2023-04-16T06:24:43;5.10;;;4.30;;
25982;SDS011;13773;48.868;10.730;2023-04-16T06:27:08;4.30;;;3.90;;
25982;SDS011;13773;48.868;10.730;2023-04-16T06:29:34;3.87;;;3.47;;
25982;SDS011;13773;48.868;10.730;2023-04-16T06:32:00;4.23;;;3.80;;
25982;SDS011;13773;48.868;10.730;2023-04-16T06:34:27;4.23;;;3.83;;
25982;SDS011;13773;48.868;10.730;2023-04-16T06:36:53;4.63;;;3.67;;
25982;SDS011;13773;48.868;10.730;2023-04-16T06:39:19;4.13;;;3.77;;
25982;SDS011;13773;48.868;10.730;2023-04-16T06:41:48;5.00;;;4.53;;
25982;SDS011;13773;48.868;10.730;2023-04-16T06:44:14;3.60;;;3.30;;
25982;SDS011;13773;48.868;10.730;2023-04-16T06:46:40;3.07;;;2.87;;
25982;SDS011;13773;48.868;10.730;2023-04-16T06:49:06;3.53;;;3.23;;
25982;SDS011;13773;48.868;10.730;2023-04-16T06:51:32;3.50;;;3.20;;
25982;SDS011;13773;48.868;10.730;2023-04-16T06:53:58;2.40;;;2.20;;
25982;SDS011;13773;48.868;10.730;2023-04-16T06:56:23;3.00;;;2.70;;
25982;SDS011;13773;48.868;10.730;2023-04-16T06:58:49;3.37;;;3.17;;
25982;SDS011;13773;48.868;10.730;2023-04-16T07:01:16;2.90;;;2.70;;
25982;SDS011;13773;48.868;10.730;2023-04-16T07:03:42;2.10;;;2.00;;
25982;SDS011;13773;48.868;10.730;2023-04-16T07:06:08;2.33;;;2.17;;
25982;SDS011;13773;48.868;10.730;2023-04-16T07:08:34;2.47;;;2.00;;
25982;SDS011;13773;48.868;10.730;2023-04-16T07:11:00;2.27;;;2.07;;
25982;SDS011;13773;48.868;10.730;2023-04-16T07:13:26;3.40;;;3.10;;
25982;SDS011;13773;48.868;10.730;2023-04-16T07:15:51;3.20;;;2.90;;
25982;SDS011;13773;48.868;10.730;2023-04-16T07:18:17;2.30;;;2.10;;
25982;SDS011;13773;48.868;10.730;2023-04-16T07:20:43;2.43;;;2.23;;
25982;SDS011;13773;48.868;10.730;2023-04-16T07:23:09;1.80;;;1.70;;
25982;SDS011;13773;48.868;10.730;2023-04-16T07:25:35;1.57;;;1.47;;
25982;SDS011;13773;48.868;10.730;2023-04-16T07:28:01;1.30;;;1.20;;
25982;SDS011;13773;48.868;10.730;2023-04-16T07:30:27;1.70;;;1.60;;
25982;SDS011;13773;48.868;10.730;2023-04-16T07:32:58;1.30;;;1.20;;
25982;SDS011;13773;48.868;10.730;2023-04-16T07:35:27;1.40;;;1.30;;
25982;SDS011;13773;48.868;10.730;2023-04-16T07:37:53;1.00;;;1.00;;
25982;SDS011;13773;48.868;10.730;2023-04-16T07:40:19;1.50;;;1.40;;
25982;SDS011;13773;48.868;10.730;2023-04-16T07:42:45;1.00;;;1.00;;
25982;SDS011;13773;48.868;10.730;2023-04-16T07:45:11;0.87;;;0.87;;
25982;SDS011;13773;48.868;10.730;2023-04-16T07:47:36;1.63;;;1.53;;
25982;SDS011;13773;48.868;10.730;2023-04-16T07:50:02;1.67;;;1.57;;
25982;SDS011;13773;48.868;10.730;2023-04-16T07:52:28;1.70;;;1.60;;
25982;SDS011;13773;48.868;10.730;2023-04-16T07:54:54;1.60;;;1.40;;
25982;SDS011;13773;48.868;10.730;2023-04-16T07:57:20;1.60;;;1.50;;
25982;SDS011;13773;48.868;10.730;2023-04-16T07:59:45;1.60;;;1.50;;
25982;SDS011;13773;48.868;10.730;2023-04-16T08:02:11;2.17;;;2.07;;
25982;SDS011;13773;48.868;10.730;2023-04-16T08:04:40;1.90;;;1.80;;
25982;SDS011;13773;48.868;10.730;2023-04-16T08:07:07;1.70;;;1.60;;
25982;SDS011;13773;48.868;10.730;2023-04-16T08:09:33;1.50;;;1.40;;
25982;SDS011;13773;48.868;10.730;2023-04-16T08:12:01;2.20;;;2.00;;
25982;SDS011;13773;48.868;10.730;2023-04-16T08:14:27;2.80;;;2.60;;
25982;SDS011;13773;48.868;10.730;2023-04-16T08:16:53;4.40;;;4.00;;
25982;SDS011;13773;48.868;10.730;2023-04-16T08:19:18;3.53;;;2.80;;
25982;SDS011;13773;48.868;10.730;2023-04-16T08:21:45;2.20;;;2.00;;
25982;SDS011;13773;48.868;10.730;2023-04-16T08:24:11;1.83;;;1.73;;
25982;SDS011;13773;48.868;10.730;2023-04-16T08:26:37;1.80;;;1.70;;
25982;SDS011;13773;48.868;10.730;2023-04-16T08:29:02;1.83;;;1.73;;
25982;SDS011;13773;48.868;10.730;2023-04-16T08:31:28;2.07;;;1.90;;
25982;SDS011;13773;48.868;10.730;2023-04-16T08:33:54;1.97;;;1.87;;
25982;SDS011;13773;48.868;10.730;2023-04-16T08:36:19;1.80;;;1.70;;
25982;SDS011;13773;48.868;10.730;2023-04-16T08:38:45;2.10;;;2.00;;
25982;SDS011;13773;48.868;10.730;2023-04-16T08:41:11;1.90;;;1.80;;
25982;SDS011;13773;48.868;10.730;2023-04-16T08:43:37;1.90;;;1.80;;
25982;SDS011;13773;48.868;10.730;2023-04-16T08:46:08;1.67;;;1.57;;
25982;SDS011;13773;48.868;10.730;2023-04-16T08:48:35;1.50;;;1.40;;
25982;SDS011;13773;48.868;10.730;2023-04-16T08:51:01;1.40;;;1.30;;
25982;SDS011;13773;48.868;10.730;2023-04-16T08:53:47;1.50;;;1.40;;
25982;SDS011;13773;48.868;10.730;2023-04-16T08:56:19;1.50;;;1.40;;
25982;SDS011;13773;48.868;10.730;2023-04-16T08:58:47;1.17;;;1.10;;
25982;SDS011;13773;48.868;10.730;2023-04-16T09:01:15;0.80;;;0.80;;
25982;SDS011;13773;48.868;10.730;2023-04-16T09:03:43;1.00;;;1.00;;
25982;SDS011;13773;48.868;10.730;2023-04-16T09:06:12;1.30;;;1.20;;
25982;SDS011;13773;48.868;10.730;2023-04-16T09:08:39;1.70;;;1.60;;
25982;SDS011;13773;48.868;10.730;2023-04-16T09:11:07;1.50;;;1.40;;
25982;SDS011;13773;48.868;10.730;2023-04-16T09:13:33;1.57;;;1.47;;
25982;SDS011;13773;48.868;10.730;2023-04-16T09:16:01;1.87;;;1.77;;
25982;SDS011;13773;48.868;10.730;2023-04-16T09:18:27;1.53;;;1.43;;
25982;SDS011;13773;48.868;10.730;2023-04-16T09:20:55;2.63;;;1.60;;
25982;SDS011;13773;48.868;10.730;2023-04-16T09:23:21;1.97;;;1.77;;
25982;SDS011;13773;48.868;10.730;2023-04-16T09:25:47;3.07;;;2.63;;
25982;SDS011;13773;48.868;10.730;2023-04-16T09:28:36;2.33;;;2.00;;
25982;SDS011;13773;48.868;10.730;2023-04-16T09:31:09;1.87;;;1.67;;
25982;SDS011;13773;48.868;10.730;2023-04-16T09:33:38;1.80;;;1.70;;
25982;SDS011;13773;48.868;10.730;2023-04-16T09:36:04;1.40;;;1.30;;
25982;SDS011;13773;48.868;10.730;2023-04-16T09:38:44;1.23;;;1.10;;
25982;SDS011;13773;48.868;10.730;2023-04-16T09:41:14;1.10;;;0.80;;
25982;SDS011;13773;48.868;10.730;2023-04-16T09:43:52;0.90;;;0.90;;
25982;SDS011;13773;48.868;10.730;2023-04-16T09:46:19;1.43;;;1.20;;
25982;SDS011;13773;48.868;10.730;2023-04-16T09:48:45;1.20;;;1.20;;
25982;SDS011;13773;48.868;10.730;2023-04-16T09:51:11;1.20;;;1.10;;
25982;SDS011;13773;48.868;10.730;2023-04-16T09:53:37;1.43;;;0.90;;
25982;SDS011;13773;48.868;10.730;2023-04-16T09:56:04;0.90;;;0.90;;
25982;SDS011;13773;48.868;10.730;2023-04-16T09:58:31;0.90;;;0.90;;
25982;SDS011;13773;48.868;10.730;2023-04-16T10:01:00;0.77;;;0.77;;
25982;SDS011;13773;48.868;10.730;2023-04-16T10:03:30;0.73;;;0.73;;
25982;SDS011;13773;48.868;10.730;2023-04-16T10:06:02;1.00;;;1.00;;
25982;SDS011;13773;48.868;10.730;2023-04-16T10:08:42;1.23;;;0.80;;
25982;SDS011;13773;48.868;10.730;2023-04-16T10:11:15;0.80;;;0.80;;
25982;SDS011;13773;48.868;10.730;2023-04-16T10:13:45;0.80;;;0.80;;
25982;SDS011;13773;48.868;10.730;2023-04-16T10:16:11;0.90;;;0.90;;
25982;SDS011;13773;48.868;10.730;2023-04-16T10:18:37;1.13;;;1.13;;
25982;SDS011;13773;48.868;10.730;2023-04-16T10:21:05;1.20;;;1.20;;
25982;SDS011;13773;48.868;10.730;2023-04-16T10:23:32;1.10;;;1.10;;
25982;SDS011;13773;48.868;10.730;2023-04-16T10:25:58;1.10;;;1.10;;
25982;SDS011;13773;48.868;10.730;2023-04-16T10:28:25;1.83;;;1.20;;
25982;SDS011;13773;48.868;10.730;2023-04-16T10:30:53;1.60;;;1.50;;
25982;SDS011;13773;48.868;10.730;2023-04-16T10:33:21;2.60;;;2.40;;
25982;SDS011;13773;48.868;10.730;2023-04-16T10:35:49;3.67;;;3.27;;
25982;SDS011;13773;48.868;10.730;2023-04-16T10:38:25;2.83;;;2.57;;
25982;SDS011;13773;48.868;10.730;2023-04-16T10:41:01;2.23;;;2.03;;
25982;SDS011;13773;48.868;10.730;2023-04-16T10:43:38;1.90;;;1.80;;
25982;SDS011;13773;48.868;10.730;2023-04-16T10:46:19;2.93;;;2.10;;
25982;SDS011;13773;48.868;10.730;2023-04-16T10:48:48;2.40;;;2.20;;
25982;SDS011;13773;48.868;10.730;2023-04-16T10:53:52;1.93;;;1.13;;
25982;SDS011;13773;48.868;10.730;2023-04-16T10:56:23;5.20;;;2.63;;
25982;SDS011;13773;48.868;10.730;2023-04-16T10:58:51;5.60;;;3.77;;
25982;SDS011;13773;48.868;10.730;2023-04-16T11:01:21;4.57;;;3.30;;
25982;SDS011;13773;48.868;10.730;2023-04-16T11:03:55;5.10;;;2.30;;
25982;SDS011;13773;48.868;10.730;2023-04-16T11:06:24;2.10;;;1.90;;
25982;SDS011;13773;48.868;10.730;2023-04-16T11:08:51;1.03;;;1.03;;
25982;SDS011;13773;48.868;10.730;2023-04-16T11:11:17;1.30;;;1.20;;
25982;SDS011;13773;48.868;10.730;2023-04-16T11:13:44;1.93;;;1.40;;
25982;SDS011;13773;48.868;10.730;2023-04-16T11:16:11;1.70;;;1.60;;
25982;SDS011;13773;48.868;10.730;2023-04-16T11:18:38;1.70;;;1.60;;
25982;SDS011;13773;48.868;10.730;2023-04-16T11:21:08;1.40;;;1.30;;
25982;SDS011;13773;48.868;10.730;2023-04-16T11:23:45;1.70;;;1.60;;
25982;SDS011;13773;48.868;10.730;2023-04-16T11:26:25;2.37;;;2.17;;
25982;SDS011;13773;48.868;10.730;2023-04-16T11:28:55;2.83;;;2.63;;
25982;SDS011;13773;48.868;10.730;2023-04-16T11:31:21;3.60;;;2.80;;
25982;SDS011;13773;48.868;10.730;2023-04-16T11:33:48;2.60;;;2.40;;
25982;SDS011;13773;48.868;10.730;2023-04-16T11:36:14;2.87;;;2.57;;
25982;SDS011;13773;48.868;10.730;2023-04-16T11:38:40;1.70;;;1.60;;
25982;SDS011;13773;48.868;10.730;2023-04-16T11:41:07;1.60;;;1.40;;
25982;SDS011;13773;48.868;10.730;2023-04-16T11:43:33;2.23;;;1.67;;
25982;SDS011;13773;48.868;10.730;2023-04-16T11:46:03;2.37;;;1.60;;
25982;SDS011;13773;48.868;10.730;2023-04-16T11:48:45;2.40;;;2.13;;
25982;SDS011;13773;48.868;10.730;2023-04-16T11:51:12;2.13;;;1.93;;
25982;SDS011;13773;48.868;10.730;2023-04-16T11:53:45;2.20;;;2.10;;
25982;SDS011;13773;48.868;10.730;2023-04-16T11:56:11;2.03;;;1.83;;
25982;SDS011;13773;48.868;10.730;2023-04-16T11:58:38;2.40;;;2.20;;
25982;SDS011;13773;48.868;10.730;2023-04-16T12:01:04;3.00;;;2.80;;
25982;SDS011;13773;48.868;10.730;2023-04-16T12:03:41;2.50;;;2.30;;
25982;SDS011;13773;48.868;10.730;2023-04-16T12:06:10;2.70;;;2.50;;
25982;SDS011;13773;48.868;10.730;2023-04-16T12:08:36;2.20;;;2.00;;
25982;SDS011;13773;48.868;10.730;2023-04-16T12:11:02;1.40;;;1.30;;
25982;SDS011;13773;48.868;10.730;2023-04-16T12:13:28;1.63;;;1.53;;
25982;SDS011;13773;48.868;10.730;2023-04-16T12:15:55;1.50;;;1.30;;
25982;SDS011;13773;48.868;10.730;2023-04-16T12:18:22;1.50;;;1.40;;
25982;SDS011;13773;48.868;10.730;2023-04-16T12:20:50;1.33;;;1.23;;
25982;SDS011;13773;48.868;10.730;2023-04-16T12:23:23;1.03;;;1.03;;
25982;SDS011;13773;48.868;10.730;2023-04-16T12:25:52;1.20;;;1.10;;
25982;SDS011;13773;48.868;10.730;2023-04-16T12:28:28;1.30;;;1.20;;
25982;SDS011;13773;48.868;10.730;2023-04-16T12:31:00;1.00;;;1.00;;
25982;SDS011;13773;48.868;10.730;2023-04-16T12:33:27;1.87;;;1.40;;
25982;SDS011;13773;48.868;10.730;2023-04-16T12:35:53;1.60;;;1.50;;
25982;SDS011;13773;48.868;10.730;2023-04-16T12:38:19;2.03;;;1.70;;
25982;SDS011;13773;48.868;10.730;2023-04-16T12:40:45;2.07;;;1.87;;
25982;SDS011;13773;48.868;10.730;2023-04-16T12:43:11;1.73;;;1.40;;
25982;SDS011;13773;48.868;10.730;2023-04-16T12:45:38;2.43;;;1.80;;
25982;SDS011;13773;48.868;10.730;2023-04-16T12:48:04;1.20;;;1.10;;
25982;SDS011;13773;48.868;10.730;2023-04-16T12:50:30;1.03;;;1.03;;
25982;SDS011;13773;48.868;10.730;2023-04-16T12:52:56;0.70;;;0.67;;
25982;SDS011;13773;48.868;10.730;2023-04-16T12:55:23;0.80;;;0.80;;
25982;SDS011;13773;48.868;10.730;2023-04-16T12:57:49;1.13;;;1.03;;
25982;SDS011;13773;48.868;10.730;2023-04-16T13:00:17;1.00;;;1.00;;
25982;SDS011;13773;48.868;10.730;2023-04-16T13:02:43;0.60;;;0.60;;
25982;SDS011;13773;48.868;10.730;2023-04-16T13:05:09;1.00;;;0.90;;
25982;SDS011;13773;48.868;10.730;2023-04-16T13:07:35;3.43;;;2.20;;
25982;SDS011;13773;48.868;10.730;2023-04-16T13:10:01;1.23;;;0.90;;
25982;SDS011;13773;48.868;10.730;2023-04-16T13:12:26;1.23;;;1.13;;
25982;SDS011;13773;48.868;10.730;2023-04-16T13:14:52;0.73;;;0.70;;
25982;SDS011;13773;48.868;10.730;2023-04-16T13:17:19;1.30;;;1.20;;
25982;SDS011;13773;48.868;10.730;2023-04-16T13:19:45;1.80;;;1.60;;
25982;SDS011;13773;48.868;10.730;2023-04-16T13:22:10;1.40;;;1.30;;
25982;SDS011;13773;48.868;10.730;2023-04-16T13:24:36;2.43;;;1.43;;
25982;SDS011;13773;48.868;10.730;2023-04-16T13:27:03;2.73;;;2.10;;
25982;SDS011;13773;48.868;10.730;2023-04-16T13:29:29;2.10;;;1.60;;
25982;SDS011;13773;48.868;10.730;2023-04-16T13:31:55;1.77;;;1.60;;
25982;SDS011;13773;48.868;10.730;2023-04-16T13:34:21;2.00;;;1.80;;
25982;SDS011;13773;48.868;10.730;2023-04-16T13:36:47;2.33;;;1.90;;
25982;SDS011;13773;48.868;10.730;2023-04-16T13:39:12;1.30;;;1.00;;
25982;SDS011;13773;48.868;10.730;2023-04-16T13:41:39;0.90;;;0.90;;
25982;SDS011;13773;48.868;10.730;2023-04-16T13:44:05;1.20;;;1.10;;
25982;SDS011;13773;48.868;10.730;2023-04-16T13:46:31;1.23;;;1.13;;
25982;SDS011;13773;48.868;10.730;2023-04-16T13:48:57;1.20;;;1.10;;
25982;SDS011;13773;48.868;10.730;2023-04-16T13:51:22;1.60;;;1.13;;
25982;SDS011;13773;48.868;10.730;2023-04-16T13:53:49;1.63;;;1.53;;
25982;SDS011;13773;48.868;10.730;2023-04-16T13:56:14;1.50;;;1.40;;
25982;SDS011;13773;48.868;10.730;2023-04-16T13:58:40;3.23;;;2.53;;
25982;SDS011;13773;48.868;10.730;2023-04-16T14:01:06;1.60;;;1.50;;
25982;SDS011;13773;48.868;10.730;2023-04-16T14:03:33;2.70;;;2.50;;
25982;SDS011;13773;48.868;10.730;2023-04-16T14:06:01;2.70;;;1.73;;
25982;SDS011;13773;48.868;10.730;2023-04-16T14:08:27;3.37;;;2.57;;
25982;SDS011;13773;48.868;10.730;2023-04-16T14:10:53;4.73;;;3.47;;
25982;SDS011;13773;48.868;10.730;2023-04-16T14:13:19;2.40;;;1.87;;
25982;SDS011;13773;48.868;10.730;2023-04-16T14:15:45;2.10;;;1.70;;
25982;SDS011;13773;48.868;10.730;2023-04-16T14:18:11;2.63;;;2.23;;
25982;SDS011;13773;48.868;10.730;2023-04-16T14:20:36;1.87;;;1.50;;
25982;SDS011;13773;48.868;10.730;2023-04-16T14:23:04;2.63;;;1.90;;
25982;SDS011;13773;48.868;10.730;2023-04-16T14:25:30;7.20;;;5.03;;
25982;SDS011;13773;48.868;10.730;2023-04-16T14:27:55;4.13;;;3.27;;
25982;SDS011;13773;48.868;10.730;2023-04-16T14:30:22;8.40;;;5.87;;